Time;durP1;ratioP1;P1;durP2;ratioP2;P2;SDS_P1;SDS_P2;PMS_P1;PMS_P2;Temp;Humidity;BMP_temperature;BMP_pressure;BME280_temperature;BME280_humidity;BME280_pressure;Samples;Min_cycle;Max_cycle;Signal;HPM_P1;HPM_P2
2022/12/04 00:01:47;;;;;;;25.42;8.40;;;2.60;99.90;;;;;;5039722;28;20056;-69
2022/12/04 00:04:17;;;;;;;22.17;9.07;;;2.70;99.90;;;;;;5054638;28;20087;-69
2022/12/04 00:06:42;;;;;;;23.77;8.25;;;2.70;99.90;;;;;;5054789;28;20032;-69
2022/12/04 00:09:08;;;;;;;20.63;8.27;;;2.60;99.90;;;;;;5053310;28;20029;-69
2022/12/04 00:11:34;;;;;;;28.65;9.77;;;2.50;99.90;;;;;;5053667;28;20024;-69
2022/12/04 00:14:00;;;;;;;25.65;9.02;;;2.60;99.90;;;;;;5054738;28;20021;-69
2022/12/04 00:16:28;;;;;;;20.38;9.85;;;2.80;99.90;;;;;;5054869;28;20080;-68
2022/12/04 00:18:54;;;;;;;24.48;8.02;;;2.70;99.90;;;;;;5042797;28;20052;-68
2022/12/04 00:21:21;;;;;;;22.88;7.90;;;2.90;99.90;;;;;;5053955;28;20029;-68
2022/12/04 00:23:47;;;;;;;23.73;9.52;;;2.90;99.90;;;;;;5053053;28;20029;-68
2022/12/04 00:26:22;;;;;;;19.52;8.27;;;2.90;99.90;;;;;;5052980;28;20060;-68
2022/12/04 00:28:50;;;;;;;21.95;8.05;;;2.80;99.90;;;;;;5052933;28;20021;-68
2022/12/04 00:31:22;;;;;;;23.25;9.35;;;2.70;99.90;;;;;;5054114;28;20025;-69
2022/12/04 00:33:48;;;;;;;;;;;2.70;99.90;;;;;;5053364;28;20074;-69
2022/12/04 00:36:16;;;;;;;23.10;7.75;;;2.90;99.90;;;;;;5052927;28;19905;-69
2022/12/04 00:38:43;;;;;;;24.27;9.60;;;3.00;99.90;;;;;;5052658;28;20028;-69
2022/12/04 00:41:11;;;;;;;26.73;10.00;;;2.90;99.90;;;;;;5052677;28;20021;-69
2022/12/04 00:43:37;;;;;;;24.77;9.77;;;3.00;99.90;;;;;;5052230;28;20021;-69
2022/12/04 00:46:02;;;;;;;25.95;9.45;;;3.00;99.90;;;;;;5054095;28;20025;-69
2022/12/04 00:48:28;;;;;;;22.20;7.65;;;3.10;99.90;;;;;;5052563;28;20028;-69
2022/12/04 00:50:54;;;;;;;24.63;9.30;;;3.10;99.90;;;;;;5052585;28;20032;-69
2022/12/04 00:53:20;;;;;;;22.58;9.23;;;3.20;99.90;;;;;;5052904;28;20037;-69
2022/12/04 00:55:46;;;;;;;21.75;8.50;;;3.20;99.90;;;;;;5054154;28;20040;-69
2022/12/04 00:58:12;;;;;;;25.13;10.10;;;3.10;99.90;;;;;;5052772;28;20029;-69
2022/12/04 01:00:39;;;;;;;25.58;9.30;;;3.10;99.90;;;;;;5052656;28;20025;-69
2022/12/04 01:03:05;;;;;;;22.70;8.63;;;3.20;99.90;;;;;;5052914;28;20023;-69
2022/12/04 01:05:31;;;;;;;22.27;9.10;;;3.20;99.90;;;;;;5052207;28;20029;-69
2022/12/04 01:07:57;;;;;;;23.33;9.23;;;3.10;99.90;;;;;;5052677;28;20082;-69
2022/12/04 01:10:23;;;;;;;21.50;8.52;;;3.10;99.90;;;;;;5053393;28;20032;-69
2022/12/04 01:12:50;;;;;;;22.35;8.77;;;3.20;99.90;;;;;;5052199;28;20052;-69
2022/12/04 01:15:16;;;;;;;20.08;7.40;;;3.10;99.90;;;;;;5053547;28;20021;-69
2022/12/04 01:17:41;;;;;;;20.48;8.05;;;3.00;99.90;;;;;;5053162;28;20032;-69
2022/12/04 01:20:07;;;;;;;22.08;8.48;;;3.10;99.90;;;;;;5052641;28;20116;-69
2022/12/04 01:22:33;;;;;;;24.25;9.13;;;3.00;99.90;;;;;;5053895;28;20080;-68
2022/12/04 01:24:58;;;;;;;25.40;8.95;;;2.80;99.90;;;;;;5052329;28;20017;-68
2022/12/04 01:27:24;;;;;;;20.80;7.90;;;2.80;99.90;;;;;;5053631;28;20116;-68
2022/12/04 01:29:49;;;;;;;23.83;8.05;;;2.90;99.90;;;;;;5052407;28;20112;-68
2022/12/04 01:32:15;;;;;;;20.00;8.25;;;2.80;99.90;;;;;;5052051;28;20024;-69
2022/12/04 01:34:41;;;;;;;22.20;8.25;;;2.80;99.90;;;;;;5053468;28;20109;-69
2022/12/04 01:37:07;;;;;;;22.70;7.82;;;2.70;99.90;;;;;;5052363;28;20048;-69
2022/12/04 01:39:35;;;;;;;19.65;7.68;;;2.70;99.90;;;;;;5052001;28;20078;-69
2022/12/04 01:42:01;;;;;;;24.83;8.35;;;2.60;99.90;;;;;;5053313;28;20025;-69
2022/12/04 01:44:29;;;;;;;22.27;8.75;;;2.60;99.90;;;;;;5051875;28;20083;-69
2022/12/04 01:47:00;;;;;;;22.63;8.75;;;2.60;99.90;;;;;;5052168;28;20032;-69
2022/12/04 01:49:35;;;;;;;21.77;8.82;;;2.70;99.90;;;;;;5052744;28;20024;-68
2022/12/04 01:52:08;;;;;;;17.95;7.65;;;2.70;99.90;;;;;;5052015;28;20036;-69
2022/12/04 01:54:37;;;;;;;17.88;7.82;;;2.90;99.90;;;;;;5052255;28;20082;-69
2022/12/04 01:57:16;;;;;;;19.42;7.85;;;3.00;99.90;;;;;;5057003;28;20025;-68
2022/12/04 01:59:52;;;;;;;22.35;8.50;;;2.60;99.90;;;;;;5056705;28;20116;-68
2022/12/04 02:02:22;;;;;;;20.02;8.00;;;2.60;99.90;;;;;;5056484;28;20119;-68
2022/12/04 02:04:49;;;;;;;19.38;8.30;;;2.60;99.90;;;;;;5056397;28;20021;-68
2022/12/04 02:07:14;;;;;;;20.23;7.55;;;2.50;99.90;;;;;;5057592;28;20079;-68
2022/12/04 02:09:41;;;;;;;18.73;8.48;;;2.60;99.90;;;;;;5056900;28;20024;-68
2022/12/04 02:12:22;;;;;;;21.40;8.40;;;2.60;99.90;;;;;;5055416;28;20037;-68
2022/12/04 02:15:00;;;;;;;21.10;7.85;;;2.40;99.90;;;;;;5056434;28;20025;-68
2022/12/04 02:17:31;;;;;;;22.25;8.57;;;2.50;99.90;;;;;;5056717;28;20029;-68
2022/12/04 02:20:22;;;;;;;19.05;7.47;;;2.50;99.90;;;;;;5055627;28;20029;-68
2022/12/04 02:22:56;;;;;;;20.48;7.63;;;2.40;99.90;;;;;;5055218;28;20065;-68
2022/12/04 02:25:58;;;;;;;20.33;8.38;;;2.30;99.90;;;;;;5057368;28;20025;-68
2022/12/04 02:28:32;;;;;;;22.75;7.75;;;2.30;99.90;;;;;;5056802;28;20021;-68
2022/12/04 02:30:59;;;;;;;20.67;7.53;;;2.30;99.90;;;;;;5055300;28;20120;-68
2022/12/04 02:33:30;;;;;;;24.27;8.70;;;2.40;99.90;;;;;;5055147;28;20021;-68
2022/12/04 02:36:13;;;;;;;18.90;7.47;;;2.50;99.90;;;;;;5055168;28;20032;-68
2022/12/04 02:38:57;;;;;;;18.00;7.90;;;2.30;99.90;;;;;;5056674;28;20100;-68
2022/12/04 02:41:40;;;;;;;19.73;8.30;;;2.20;99.90;;;;;;5056301;28;20056;-69
2022/12/04 02:44:24;;;;;;;19.90;7.57;;;2.00;99.90;;;;;;5054997;28;20021;-69
2022/12/04 02:46:55;;;;;;;18.20;7.53;;;2.00;99.90;;;;;;5054970;28;20116;-69
2022/12/04 02:49:27;;;;;;;20.07;7.80;;;1.90;99.90;;;;;;5054944;28;20021;-69
2022/12/04 02:51:55;;;;;;;18.48;7.03;;;1.90;99.90;;;;;;5056170;28;20310;-69
2022/12/04 02:54:27;;;;;;;17.23;7.82;;;1.90;99.90;;;;;;5055725;28;20037;-69
2022/12/04 02:56:55;;;;;;;19.23;7.20;;;1.90;99.90;;;;;;5056350;28;20028;-69
2022/12/04 02:59:44;;;;;;;21.17;7.80;;;2.00;99.90;;;;;;5056147;28;20030;-69
2022/12/04 03:02:42;;;;;;;21.02;8.13;;;2.30;99.90;;;;;;5056121;28;20029;-69
2022/12/04 03:05:15;;;;;;;20.65;8.48;;;2.00;99.90;;;;;;4997732;28;20120;-69
2022/12/04 03:07:49;;;;;;;22.30;7.60;;;2.00;99.90;;;;;;5013563;28;20069;-69
2022/12/04 03:10:19;;;;;;;23.75;8.85;;;2.00;99.90;;;;;;5014507;28;20081;-69
2022/12/04 03:13:00;;;;;;;21.50;7.63;;;2.00;99.90;;;;;;5013790;28;20026;-69
2022/12/04 03:15:48;;;;;;;19.25;8.13;;;2.10;99.90;;;;;;5013820;28;20034;-69
2022/12/04 03:18:13;;;;;;;23.35;8.20;;;2.10;99.90;;;;;;5013741;28;20029;-69
2022/12/04 03:20:41;;;;;;;23.15;8.18;;;2.20;99.90;;;;;;4997442;28;20026;-69
2022/12/04 03:23:16;;;;;;;17.75;7.57;;;2.30;99.90;;;;;;5013809;28;20476;-69
2022/12/04 03:26:22;;;;;;;25.05;8.88;;;2.30;99.90;;;;;;5013734;28;20477;-69
2022/12/04 03:29:10;;;;;;;17.35;7.28;;;2.20;99.90;;;;;;4921020;29;20047;-69
2022/12/04 03:32:09;;;;;;;17.98;7.10;;;2.20;99.90;;;;;;4936485;29;20042;-69
2022/12/04 03:34:40;;;;;;;17.77;7.22;;;2.20;99.90;;;;;;4920011;29;20035;-69
2022/12/04 03:37:13;;;;;;;18.95;7.50;;;2.40;99.90;;;;;;4936250;29;20507;-69
2022/12/04 03:39:48;;;;;;;15.48;7.32;;;2.50;99.90;;;;;;4920160;29;20055;-69
2022/12/04 03:42:31;;;;;;;20.33;7.60;;;2.50;99.90;;;;;;4946113;28;20133;-69
2022/12/04 03:45:01;;;;;;;15.55;6.57;;;2.60;99.90;;;;;;4974387;28;20027;-69
2022/12/04 03:47:35;;;;;;;20.35;7.65;;;2.70;99.90;;;;;;4958626;28;20023;-69
2022/12/04 03:50:13;;;;;;;17.40;6.65;;;2.70;99.90;;;;;;4958105;28;20054;-69
2022/12/04 03:52:50;;;;;;;17.05;6.68;;;2.40;99.90;;;;;;4957964;28;20031;-69
2022/12/04 03:55:45;;;;;;;17.35;8.00;;;2.20;99.90;;;;;;4974146;28;20094;-69
2022/12/04 03:58:17;;;;;;;17.65;7.50;;;2.10;99.90;;;;;;4958257;28;20085;-69
2022/12/04 04:00:44;;;;;;;13.70;6.68;;;2.10;99.90;;;;;;4957673;28;20027;-69
2022/12/04 04:03:16;;;;;;;20.60;8.10;;;2.30;99.90;;;;;;5010520;28;20026;-69
2022/12/04 04:05:46;;;;;;;19.10;8.15;;;2.40;99.90;;;;;;5035176;28;20021;-69
2022/12/04 04:08:25;;;;;;;16.05;6.70;;;2.20;99.90;;;;;;5034676;28;20052;-69
2022/12/04 04:11:07;;;;;;;22.65;8.55;;;2.30;99.90;;;;;;5034325;28;20025;-69
2022/12/04 04:25:02;;;;;;;19.27;7.25;;;2.00;99.90;;;;;;5034918;28;20077;-69
2022/12/04 04:27:28;;;;;;;18.27;7.55;;;1.90;99.90;;;;;;5033193;28;20025;-69
2022/12/04 04:29:53;;;;;;;18.98;6.65;;;1.90;99.90;;;;;;5033095;28;20052;-69
2022/12/04 04:32:43;;;;;;;18.98;6.95;;;2.00;99.90;;;;;;5033056;28;20025;-69
2022/12/04 04:35:41;;;;;;;18.75;7.38;;;2.10;99.90;;;;;;5036180;28;20416;-69
2022/12/04 04:38:20;;;;;;;15.38;6.63;;;2.00;99.90;;;;;;5033809;28;20029;-69
2022/12/04 04:40:58;;;;;;;22.17;8.73;;;2.00;99.90;;;;;;5034096;28;20392;-69
2022/12/04 04:43:38;;;;;;;22.23;8.05;;;1.90;99.90;;;;;;5034075;28;20075;-68
2022/12/04 04:46:10;;;;;;;21.48;7.93;;;1.80;99.90;;;;;;5034435;28;20469;-68
2022/12/04 04:48:40;;;;;;;17.80;6.88;;;1.90;99.90;;;;;;5034283;28;20022;-68
2022/12/04 04:51:06;;;;;;;19.65;7.53;;;2.00;99.90;;;;;;5033865;28;20030;-68
2022/12/04 04:53:45;;;;;;;25.80;8.20;;;1.90;99.90;;;;;;5032533;28;20040;-68
2022/12/04 04:56:11;;;;;;;18.15;7.63;;;2.00;99.90;;;;;;5034187;28;20064;-68
2022/12/04 04:58:38;;;;;;;20.02;7.53;;;1.80;99.90;;;;;;5032511;28;20038;-68
2022/12/04 05:01:10;;;;;;;20.15;7.70;;;1.80;99.90;;;;;;5033753;28;20033;-68
2022/12/04 05:03:36;;;;;;;18.17;7.75;;;1.90;99.90;;;;;;5033698;28;20025;-68
2022/12/04 05:06:02;;;;;;;19.70;7.93;;;2.00;99.90;;;;;;5032352;28;20112;-68
2022/12/04 05:08:28;;;;;;;19.67;7.65;;;2.10;99.90;;;;;;5032359;28;20067;-68
2022/12/04 05:10:53;;;;;;;18.08;7.43;;;2.00;99.90;;;;;;5033605;28;20064;-68
2022/12/04 05:13:20;;;;;;;23.60;8.05;;;2.10;99.90;;;;;;5033359;28;20021;-69
2022/12/04 05:16:02;;;;;;;19.83;7.88;;;2.00;99.90;;;;;;5032250;28;20026;-69
2022/12/04 05:18:28;;;;;;;17.25;7.53;;;2.10;99.90;;;;;;5033566;28;20033;-69
2022/12/04 05:20:54;;;;;;;17.48;8.07;;;2.30;99.90;;;;;;5033510;28;20021;-68
2022/12/04 05:23:20;;;;;;;20.75;7.93;;;2.20;99.90;;;;;;5033445;28;20014;-68
2022/12/04 05:25:46;;;;;;;22.50;8.77;;;2.10;99.90;;;;;;5032989;28;20104;-68
2022/12/04 05:28:12;;;;;;;18.17;7.32;;;2.10;99.90;;;;;;5032392;28;20080;-68
2022/12/04 05:30:38;;;;;;;18.40;7.25;;;2.20;99.90;;;;;;5032214;28;20031;-68
2022/12/04 05:33:04;;;;;;;19.48;7.65;;;2.10;99.90;;;;;;5032881;28;20106;-68
2022/12/04 05:35:29;;;;;;;21.98;8.80;;;2.10;99.90;;;;;;5032938;28;20026;-68
2022/12/04 05:37:55;;;;;;;21.33;8.07;;;2.10;99.90;;;;;;5034010;28;20086;-68
2022/12/04 05:40:20;;;;;;;20.27;9.02;;;2.10;99.90;;;;;;5032249;28;20033;-68
2022/12/04 05:42:46;;;;;;;24.17;7.90;;;2.20;99.90;;;;;;5031958;28;20026;-68
2022/12/04 05:45:11;;;;;;;19.98;7.40;;;2.10;99.90;;;;;;5033569;28;20120;-68
2022/12/04 05:47:38;;;;;;;28.20;9.80;;;2.10;99.90;;;;;;5032011;28;20036;-68
2022/12/04 05:50:06;;;;;;;23.15;9.18;;;2.20;99.90;;;;;;5033059;28;20064;-68
2022/12/04 05:52:32;;;;;;;22.15;7.78;;;2.20;99.90;;;;;;5033540;28;20034;-69
2022/12/04 05:54:57;;;;;;;23.08;8.63;;;2.30;99.90;;;;;;5033141;28;20112;-69
2022/12/04 05:57:23;;;;;;;21.65;8.25;;;2.30;99.90;;;;;;5031795;28;20499;-69
2022/12/04 05:59:49;;;;;;;21.35;7.95;;;2.40;99.90;;;;;;5031773;28;20029;-69
2022/12/04 06:02:15;;;;;;;21.98;8.50;;;2.40;99.90;;;;;;5031631;28;20051;-69
2022/12/04 06:04:41;;;;;;;25.35;8.20;;;2.30;99.90;;;;;;5033050;28;20025;-69
2022/12/04 06:07:06;;;;;;;24.95;8.45;;;2.30;99.90;;;;;;5031849;28;20022;-69
2022/12/04 06:09:32;;;;;;;23.95;9.40;;;2.40;99.90;;;;;;5031878;28;20021;-69
2022/12/04 06:11:57;;;;;;;22.77;8.95;;;2.30;99.90;;;;;;5032871;28;20040;-69
2022/12/04 06:14:23;;;;;;;23.00;8.45;;;2.40;99.90;;;;;;5032948;28;20030;-69
2022/12/04 06:16:49;;;;;;;25.75;9.20;;;2.40;99.90;;;;;;5031621;28;20071;-69
2022/12/04 06:19:17;;;;;;;23.75;8.90;;;2.30;99.90;;;;;;5032540;28;20033;-69
2022/12/04 06:21:46;;;;;;;21.27;8.98;;;2.30;99.90;;;;;;5032782;28;20028;-69
2022/12/04 06:24:15;;;;;;;21.55;9.30;;;2.30;99.90;;;;;;5033352;28;20033;-69
2022/12/04 06:26:41;;;;;;;23.35;8.45;;;2.50;99.90;;;;;;5032902;28;20026;-69
2022/12/04 06:29:06;;;;;;;25.02;9.95;;;2.60;99.90;;;;;;5031617;28;20018;-69
2022/12/04 06:31:34;;;;;;;28.92;8.95;;;2.60;99.90;;;;;;5032780;28;20053;-69
2022/12/04 06:34:00;;;;;;;25.38;9.50;;;2.50;99.90;;;;;;5031591;28;20025;-69
2022/12/04 06:36:26;;;;;;;23.58;10.05;;;2.50;99.90;;;;;;5031478;28;20029;-69
2022/12/04 06:38:55;;;;;;;25.73;9.40;;;2.50;99.90;;;;;;5033347;28;20057;-69
2022/12/04 06:41:20;;;;;;;26.45;8.93;;;2.70;99.90;;;;;;5032721;28;20118;-69
2022/12/04 06:43:47;;;;;;;25.02;9.10;;;2.30;99.90;;;;;;5036571;28;20053;-69
2022/12/04 06:46:17;;;;;;;26.83;9.35;;;2.40;99.90;;;;;;5036263;28;20025;-69
2022/12/04 06:48:43;;;;;;;24.80;9.85;;;2.60;99.90;;;;;;5035184;28;20500;-69
2022/12/04 06:51:15;;;;;;;26.20;9.77;;;2.70;99.90;;;;;;5034774;28;20021;-69
2022/12/04 06:53:41;;;;;;;27.90;9.75;;;2.80;99.90;;;;;;5034935;28;20480;-69
2022/12/04 06:56:09;;;;;;;24.88;9.70;;;2.80;99.90;;;;;;5034969;28;20044;-69
2022/12/04 06:58:35;;;;;;;29.27;9.82;;;3.00;99.90;;;;;;5035155;28;20160;-69
2022/12/04 07:01:10;;;;;;;26.15;9.10;;;2.90;99.90;;;;;;5034617;28;20124;-69
2022/12/04 07:03:36;;;;;;;27.35;8.90;;;2.80;99.90;;;;;;5034671;28;20032;-69
2022/12/04 07:06:22;;;;;;;21.15;8.40;;;2.90;99.90;;;;;;5034691;28;20170;-69
2022/12/04 07:08:50;;;;;;;25.75;9.15;;;2.90;99.90;;;;;;5035862;28;20021;-69
2022/12/04 07:11:16;;;;;;;23.77;9.05;;;2.80;99.90;;;;;;5035017;28;20389;-69
2022/12/04 07:13:42;;;;;;;29.35;9.90;;;3.00;99.90;;;;;;5034430;28;20057;-69
2022/12/04 07:16:10;;;;;;;22.52;8.23;;;3.00;99.90;;;;;;5034543;28;20114;-69
2022/12/04 07:18:36;;;;;;;23.48;7.80;;;3.10;99.90;;;;;;5035668;28;20026;-69
2022/12/04 07:21:18;;;;;;;26.23;8.50;;;3.10;99.90;;;;;;5035201;28;20022;-69
2022/12/04 07:23:47;;;;;;;21.90;8.82;;;3.10;99.90;;;;;;5035850;28;20097;-69
2022/12/04 07:26:13;;;;;;;24.52;7.75;;;3.10;99.90;;;;;;5034199;28;20076;-69
2022/12/04 07:28:39;;;;;;;27.20;9.40;;;3.10;99.90;;;;;;5034177;28;20021;-69
2022/12/04 07:31:06;;;;;;;24.20;8.77;;;3.00;99.90;;;;;;5034998;28;20045;-69
2022/12/04 07:33:32;;;;;;;25.13;8.88;;;2.90;99.90;;;;;;5034454;28;20025;-69
2022/12/04 07:35:59;;;;;;;28.83;9.55;;;2.80;99.90;;;;;;5035367;28;20036;-69
2022/12/04 07:38:25;;;;;;;25.55;9.23;;;2.90;99.90;;;;;;5034020;28;20026;-69
2022/12/04 07:40:50;;;;;;;25.88;8.68;;;2.90;99.90;;;;;;5033945;28;20061;-69
2022/12/04 07:43:16;;;;;;;27.83;10.05;;;3.00;99.90;;;;;;5033876;28;20064;-69
2022/12/04 07:45:41;;;;;;;23.20;7.97;;;2.80;99.90;;;;;;5035100;28;20034;-69
2022/12/04 07:48:07;;;;;;;25.67;10.68;;;2.80;99.90;;;;;;5035100;28;20017;-69
2022/12/04 07:50:32;;;;;;;23.55;8.43;;;2.70;99.90;;;;;;5033862;28;20113;-69
2022/12/04 07:52:58;;;;;;;29.40;10.15;;;2.60;99.90;;;;;;5034727;28;20039;-69
2022/12/04 07:55:23;;;;;;;32.15;10.07;;;2.60;99.90;;;;;;5034898;28;20108;-68
2022/12/04 07:57:49;;;;;;;27.30;9.27;;;2.60;99.90;;;;;;5034927;28;20105;-68
2022/12/04 08:00:15;;;;;;;31.08;10.50;;;2.60;99.90;;;;;;5033622;28;20079;-68
2022/12/04 08:02:40;;;;;;;32.15;9.13;;;2.70;99.90;;;;;;5034174;28;20022;-68
2022/12/04 08:05:06;;;;;;;30.90;10.55;;;2.80;99.90;;;;;;5033880;28;20022;-68
2022/12/04 08:07:31;;;;;;;33.08;9.60;;;2.80;99.90;;;;;;5033802;28;20018;-68
2022/12/04 08:09:57;;;;;;;30.30;10.48;;;2.90;99.90;;;;;;5034622;28;20030;-68
2022/12/04 08:12:23;;;;;;;35.08;10.45;;;3.00;99.90;;;;;;5034559;28;20397;-68
2022/12/04 08:14:49;;;;;;;25.70;10.13;;;2.90;99.90;;;;;;5034574;28;20104;-68
2022/12/04 08:17:14;;;;;;;31.52;11.15;;;2.80;99.90;;;;;;5033307;28;20093;-68
2022/12/04 08:19:40;;;;;;;30.70;10.77;;;2.80;99.90;;;;;;5033717;28;20057;-68
2022/12/04 08:22:05;;;;;;;31.73;11.07;;;2.80;99.90;;;;;;5033048;28;20048;-68
2022/12/04 08:24:31;;;;;;;30.20;9.68;;;2.90;99.90;;;;;;5033429;28;20022;-68
2022/12/04 08:26:57;;;;;;;29.60;10.25;;;2.70;99.90;;;;;;5034698;28;20052;-68
2022/12/04 08:29:22;;;;;;;28.40;10.00;;;2.70;99.90;;;;;;5033293;28;20030;-68
2022/12/04 08:31:48;;;;;;;32.38;10.85;;;2.80;99.90;;;;;;5034510;28;20081;-68
2022/12/04 08:34:14;;;;;;;26.23;9.48;;;2.90;99.90;;;;;;5034214;28;20052;-68
2022/12/04 08:36:39;;;;;;;32.03;10.45;;;2.90;99.90;;;;;;5032905;28;20021;-68
2022/12/04 08:39:05;;;;;;;28.52;10.45;;;2.80;99.90;;;;;;5034105;28;20032;-68
2022/12/04 08:41:31;;;;;;;31.15;10.13;;;3.00;99.90;;;;;;5034454;28;20034;-68
2022/12/04 08:43:57;;;;;;;27.15;9.75;;;2.90;99.90;;;;;;5033015;28;20018;-68
2022/12/04 08:46:24;;;;;;;29.20;10.85;;;2.90;99.90;;;;;;5032749;28;20033;-68
2022/12/04 08:48:50;;;;;;;29.67;10.98;;;2.90;99.90;;;;;;5033728;28;20021;-68
2022/12/04 08:51:21;;;;;;;25.88;10.57;;;3.10;99.90;;;;;;5033767;28;20163;-68
2022/12/04 08:53:51;;;;;;;34.38;10.93;;;3.10;99.90;;;;;;5033909;28;20058;-68
2022/12/04 08:56:16;;;;;;;26.25;9.27;;;3.20;99.90;;;;;;5032593;28;20036;-68
2022/12/04 08:58:42;;;;;;;27.38;9.88;;;3.30;99.90;;;;;;5032510;28;20026;-68
2022/12/04 09:01:10;;;;;;;30.58;9.95;;;3.20;99.90;;;;;;5032311;28;20119;-68
2022/12/04 09:03:36;;;;;;;23.60;9.48;;;3.20;99.90;;;;;;5032949;28;20028;-68
2022/12/04 09:06:03;;;;;;;28.13;10.48;;;3.00;99.90;;;;;;5033668;28;20096;-68
2022/12/04 09:08:30;;;;;;;26.95;10.35;;;3.00;99.90;;;;;;5032331;28;20029;-68
2022/12/04 09:11:02;;;;;;;30.10;10.25;;;2.80;99.90;;;;;;5032366;28;20029;-68
2022/12/04 09:13:27;;;;;;;26.13;10.82;;;2.70;99.90;;;;;;5033620;28;20017;-68
2022/12/04 09:15:53;;;;;;;32.63;10.85;;;2.80;99.90;;;;;;5032274;28;20022;-68
2022/12/04 09:18:18;;;;;;;30.65;10.45;;;2.90;99.90;;;;;;5032274;28;20072;-68
2022/12/04 09:20:44;;;;;;;30.42;10.90;;;3.00;99.90;;;;;;5033966;28;20088;-68
2022/12/04 09:23:10;;;;;;;26.67;10.25;;;3.10;99.90;;;;;;5033395;28;20025;-68
2022/12/04 09:25:36;;;;;;;25.88;10.30;;;3.10;99.90;;;;;;5033518;28;20084;-68
2022/12/04 09:28:02;;;;;;;26.25;10.55;;;3.00;99.90;;;;;;5032462;28;20132;-68
2022/12/04 09:30:28;;;;;;;31.70;10.10;;;2.90;99.90;;;;;;5033594;28;20037;-68
2022/12/04 09:32:54;;;;;;;24.05;10.25;;;2.90;99.90;;;;;;5032028;28;20087;-68
2022/12/04 09:35:19;;;;;;;30.85;11.38;;;2.80;99.90;;;;;;5033525;28;20029;-68
2022/12/04 09:37:45;;;;;;;29.10;9.80;;;2.80;99.90;;;;;;5032014;28;20511;-68
2022/12/04 09:40:29;;;;;;;28.20;10.88;;;2.90;99.90;;;;;;5031987;28;20109;-68
2022/12/04 09:43:21;;;;;;;33.17;10.65;;;3.00;99.90;;;;;;5031961;28;20025;-68
2022/12/04 09:45:52;;;;;;;28.30;10.20;;;3.10;99.90;;;;;;5048520;28;20504;-68
2022/12/04 09:48:19;;;;;;;26.50;9.77;;;3.00;99.90;;;;;;5033200;28;20037;-68
2022/12/04 09:50:47;;;;;;;32.33;10.23;;;3.10;99.90;;;;;;5031887;28;20033;-68
2022/12/04 09:53:18;;;;;;;26.95;10.60;;;2.90;99.90;;;;;;5048331;28;20034;-68
2022/12/04 09:56:05;;;;;;;31.10;10.63;;;3.00;99.90;;;;;;5033128;28;20097;-68
2022/12/04 09:59:12;;;;;;;35.53;11.85;;;3.00;99.90;;;;;;5032088;28;20048;-67
2022/12/04 10:01:47;;;;;;;25.75;9.77;;;2.90;99.90;;;;;;4956141;28;20077;-67
2022/12/04 10:04:13;;;;;;;25.25;9.65;;;2.90;99.90;;;;;;4972610;28;20490;-67
2022/12/04 10:07:01;;;;;;;26.75;9.10;;;2.90;99.90;;;;;;4973027;28;20031;-68
2022/12/04 10:09:44;;;;;;;32.47;9.93;;;3.00;99.90;;;;;;4972581;28;20042;-68
2022/12/04 10:12:27;;;;;;;28.52;9.75;;;2.90;99.90;;;;;;4972643;28;20125;-68
2022/12/04 10:15:13;;;;;;;29.27;11.55;;;2.80;99.90;;;;;;4972280;28;20054;-68
2022/12/04 10:17:45;;;;;;;31.20;9.88;;;2.90;99.90;;;;;;4975410;28;20041;-68
2022/12/04 10:20:33;;;;;;;28.42;10.25;;;2.90;99.90;;;;;;4975825;28;20023;-68
2022/12/04 10:23:25;;;;;;;30.40;10.60;;;2.80;99.90;;;;;;4938584;28;20094;-68
2022/12/04 10:25:54;;;;;;;28.38;9.60;;;2.90;99.90;;;;;;4975719;28;20027;-68
2022/12/04 10:28:35;;;;;;;25.08;9.13;;;3.10;99.90;;;;;;4975667;28;20035;-68
2022/12/04 10:31:03;;;;;;;26.02;10.80;;;3.20;99.90;;;;;;4959511;28;20074;-68
2022/12/04 10:34:07;;;;;;;29.50;10.73;;;3.30;99.90;;;;;;4975388;28;20038;-68
2022/12/04 10:36:34;;;;;;;27.08;10.50;;;3.20;99.90;;;;;;4955439;28;20034;-68
2022/12/04 10:39:08;;;;;;;30.35;10.65;;;3.20;99.90;;;;;;4959856;28;20035;-68
2022/12/04 10:41:56;;;;;;;25.67;10.02;;;3.10;99.90;;;;;;4975500;28;20094;-68
2022/12/04 10:44:22;;;;;;;27.58;10.23;;;3.20;99.90;;;;;;4959909;28;20018;-68
2022/12/04 10:46:52;;;;;;;27.17;10.32;;;3.30;99.90;;;;;;4959398;28;20403;-68
2022/12/04 10:49:30;;;;;;;26.75;9.52;;;3.10;99.90;;;;;;4975671;28;20027;-68
2022/12/04 10:51:56;;;;;;;20.15;8.75;;;3.10;99.90;;;;;;4959499;28;20137;-68
2022/12/04 10:54:34;;;;;;;22.60;9.05;;;3.10;99.90;;;;;;4959097;28;20029;-68
2022/12/04 10:57:05;;;;;;;23.85;9.55;;;2.90;99.90;;;;;;4959966;28;20045;-68
2022/12/04 10:59:32;;;;;;;24.48;10.10;;;2.90;99.90;;;;;;4975315;28;20035;-68
2022/12/04 11:02:18;;;;;;;27.27;9.77;;;3.10;99.90;;;;;;4975202;28;20039;-68
2022/12/04 11:04:54;;;;;;;24.02;10.65;;;3.20;99.90;;;;;;4959017;28;20057;-68
2022/12/04 11:07:23;;;;;;;21.17;8.68;;;3.20;99.90;;;;;;4958897;28;20524;-68
2022/12/04 11:10:16;;;;;;;24.15;10.07;;;3.10;99.90;;;;;;4958734;28;20038;-68
2022/12/04 11:12:56;;;;;;;25.67;9.63;;;3.20;99.90;;;;;;5017184;28;20059;-68
2022/12/04 11:15:22;;;;;;;28.73;10.20;;;3.10;99.90;;;;;;5034629;28;20021;-68
2022/12/04 11:17:48;;;;;;;26.33;9.30;;;3.10;99.90;;;;;;5034438;28;20151;-68
2022/12/04 11:20:23;;;;;;;25.42;9.23;;;3.20;99.90;;;;;;5034705;28;20124;-68
2022/12/04 11:22:57;;;;;;;24.10;9.93;;;3.30;99.90;;;;;;5035437;28;20030;-68
2022/12/04 11:25:27;;;;;;;21.45;9.30;;;3.30;99.90;;;;;;5035580;28;20022;-68
2022/12/04 11:27:55;;;;;;;24.70;10.02;;;3.40;99.90;;;;;;5033791;28;20032;-68
2022/12/04 11:30:28;;;;;;;25.10;10.27;;;3.40;99.90;;;;;;5035456;28;20028;-68
2022/12/04 11:32:54;;;;;;;25.60;9.82;;;3.40;99.90;;;;;;5034105;28;20021;-68
2022/12/04 11:35:25;;;;;;;23.65;9.45;;;3.40;99.90;;;;;;5034112;28;20029;-68
2022/12/04 11:38:06;;;;;;;25.73;9.67;;;3.40;99.90;;;;;;5034994;28;20116;-68
2022/12/04 11:40:33;;;;;;;24.92;9.48;;;3.30;99.90;;;;;;5034849;28;20061;-68
2022/12/04 11:43:14;;;;;;;26.70;10.73;;;3.40;99.90;;;;;;5035310;28;20025;-68
2022/12/04 11:45:51;;;;;;;27.75;10.23;;;3.40;99.90;;;;;;5035017;28;20077;-68
2022/12/04 11:48:17;;;;;;;22.98;8.82;;;3.50;99.90;;;;;;5035493;28;20032;-68
2022/12/04 11:50:55;;;;;;;26.00;10.20;;;3.50;99.90;;;;;;5034956;28;20532;-68
2022/12/04 11:53:53;;;;;;;23.42;9.57;;;3.40;99.90;;;;;;5034111;28;20033;-67
2022/12/04 11:56:30;;;;;;;26.50;10.50;;;3.60;99.90;;;;;;5035228;28;20495;-67
2022/12/04 11:59:10;;;;;;;24.55;8.45;;;3.70;99.90;;;;;;5034557;28;20029;-67
2022/12/04 12:01:44;;;;;;;22.55;9.52;;;3.80;99.90;;;;;;5033599;28;20032;-68
2022/12/04 12:04:32;;;;;;;25.95;11.07;;;3.80;99.90;;;;;;5034893;28;20068;-67
2022/12/04 12:07:23;;;;;;;20.15;8.65;;;3.80;99.90;;;;;;5033570;28;20022;-68
2022/12/04 12:10:02;;;;;;;21.95;9.05;;;3.70;99.90;;;;;;5050379;28;20050;-69
2022/12/04 12:12:56;;;;;;;23.48;9.32;;;3.70;99.90;;;;;;5034532;28;20366;-69
2022/12/04 12:15:54;;;;;;;20.17;9.02;;;3.60;99.90;;;;;;5034899;28;20022;-69
2022/12/04 12:18:39;;;;;;;21.05;9.43;;;3.50;99.90;;;;;;5049566;28;20437;-69
2022/12/04 12:21:29;;;;;;;22.33;8.90;;;3.60;99.90;;;;;;5033132;28;20480;-68
2022/12/04 12:24:06;;;;;;;23.08;8.88;;;3.60;99.90;;;;;;5033074;28;20025;-68
2022/12/04 12:26:59;;;;;;;25.98;8.82;;;3.60;99.90;;;;;;5034236;28;20022;-69
2022/12/04 12:30:02;;;;;;;24.58;9.85;;;3.80;99.90;;;;;;5034194;28;20021;-69
2022/12/04 12:32:33;;;;;;;;;;;3.90;99.90;;;;;;5033510;28;20041;-69
2022/12/04 12:35:03;;;;;;;17.40;8.43;;;3.90;99.90;;;;;;5034247;28;19909;-68
2022/12/04 12:38:01;;;;;;;22.63;8.38;;;3.70;99.90;;;;;;5034304;28;20034;-69
2022/12/04 12:40:38;;;;;;;22.83;8.65;;;3.60;99.90;;;;;;5033383;28;20030;-68
2022/12/04 12:43:33;;;;;;;21.20;8.45;;;3.60;99.90;;;;;;5033826;28;20033;-69
2022/12/04 12:46:35;;;;;;;19.30;8.30;;;3.60;99.90;;;;;;5033948;28;20025;-69
2022/12/04 12:49:05;;;;;;;22.55;9.57;;;3.50;99.90;;;;;;5033996;28;20026;-68
2022/12/04 12:51:39;;;;;;;19.88;8.73;;;3.50;99.90;;;;;;5032329;28;20048;-69
2022/12/04 12:54:16;;;;;;;23.98;9.10;;;3.60;99.90;;;;;;5034161;28;20026;-69
2022/12/04 12:56:54;;;;;;;21.88;9.05;;;3.60;99.90;;;;;;5032640;28;20029;-68
2022/12/04 12:59:24;;;;;;;20.83;9.68;;;3.60;99.90;;;;;;5033955;28;20032;-69
2022/12/04 13:02:27;;;;;;;23.42;8.90;;;3.60;99.90;;;;;;5033597;28;20022;-69
2022/12/04 13:04:56;;;;;;;24.48;8.93;;;3.60;99.90;;;;;;5032432;28;20496;-69
2022/12/04 13:08:02;;;;;;;22.17;9.45;;;3.70;99.90;;;;;;5033805;28;20029;-68
2022/12/04 13:10:38;;;;;;;22.73;8.85;;;3.70;99.90;;;;;;5033969;28;20014;-68
2022/12/04 13:13:27;;;;;;;21.27;8.88;;;3.70;99.90;;;;;;5033419;28;20056;-68
2022/12/04 13:16:03;;;;;;;20.02;7.95;;;3.90;99.90;;;;;;5033872;28;20025;-68
2022/12/04 13:18:38;;;;;;;25.17;8.85;;;3.80;99.90;;;;;;5032053;28;20038;-69
2022/12/04 13:21:21;;;;;;;22.25;8.73;;;3.80;99.90;;;;;;5033686;28;20021;-69
2022/12/04 13:24:19;;;;;;;20.65;8.25;;;3.80;99.90;;;;;;5032246;28;20048;-68